Time;durP1;ratioP1;P1;durP2;ratioP2;P2;SDS_P1;SDS_P2;PMS_P1;PMS_P2;Temp;Humidity;BMP_temperature;BMP_pressure;BME280_temperature;BME280_humidity;BME280_pressure;Samples;Min_cycle;Max_cycle;Signal;HPM_P1;HPM_P2
2021/10/25 00:00:30;;;;;;;11.80;10.37;;;7.50;71.60;;;;;;5096446;28;20757;-89
2021/10/25 00:02:58;;;;;;;13.20;10.90;;;7.50;72.00;;;;;;5095855;28;20582;-88
2021/10/25 00:05:25;;;;;;;10.93;9.83;;;7.40;71.60;;;;;;5078779;28;20649;-89
2021/10/25 00:07:51;;;;;;;13.97;10.10;;;7.40;71.90;;;;;;5096741;28;20649;-89
2021/10/25 00:10:17;;;;;;;10.67;9.50;;;7.50;71.80;;;;;;5093840;28;20203;-88
2021/10/25 00:12:42;;;;;;;12.67;10.20;;;7.50;71.80;;;;;;5096200;28;20222;-89
2021/10/25 00:15:09;;;;;;;11.93;10.73;;;7.50;73.10;;;;;;5060764;28;20255;-89
2021/10/25 00:17:35;;;;;;;11.07;9.93;;;7.30;73.90;;;;;;5096110;28;20210;-88
2021/10/25 00:20:02;;;;;;;10.83;9.70;;;7.30;74.20;;;;;;5094955;28;20222;-88
2021/10/25 00:22:28;;;;;;;9.10;8.17;;;7.20;74.40;;;;;;5079370;28;20179;-88
2021/10/25 00:24:53;;;;;;;8.00;7.23;;;7.10;73.90;;;;;;5077214;28;20221;-89
2021/10/25 00:27:19;;;;;;;8.07;7.27;;;7.10;74.90;;;;;;5094445;28;20194;-89
2021/10/25 00:29:45;;;;;;;7.27;6.60;;;7.10;75.90;;;;;;5062014;28;20294;-88
2021/10/25 00:32:10;;;;;;;6.97;6.37;;;7.20;75.70;;;;;;5061269;28;20324;-89
2021/10/25 00:34:36;;;;;;;7.43;6.60;;;7.20;75.40;;;;;;5098994;28;20194;-88
2021/10/25 00:37:03;;;;;;;7.20;6.20;;;7.10;75.60;;;;;;5083530;28;20218;-89
2021/10/25 00:39:33;;;;;;;6.90;6.30;;;7.10;75.60;;;;;;5102487;28;20243;-89
2021/10/25 00:42:00;;;;;;;7.53;6.83;;;7.10;75.20;;;;;;5084963;28;20198;-88
2021/10/25 00:44:30;;;;;;;7.43;6.83;;;7.10;74.70;;;;;;5106336;28;20225;-89
2021/10/25 00:46:57;;;;;;;6.37;5.77;;;7.20;73.70;;;;;;5088854;28;20266;-88
2021/10/25 00:49:23;;;;;;;9.17;6.13;;;7.10;72.90;;;;;;5104019;28;20215;-88
2021/10/25 00:51:50;;;;;;;6.67;5.90;;;7.10;72.70;;;;;;5085916;28;20194;-89
2021/10/25 00:54:16;;;;;;;6.20;5.63;;;7.10;72.80;;;;;;5105265;28;20209;-88
2021/10/25 00:56:45;;;;;;;6.70;5.90;;;7.00;72.70;;;;;;5071586;28;20234;-88
2021/10/25 00:59:12;;;;;;;6.03;5.50;;;7.10;72.80;;;;;;5053151;28;20248;-89
2021/10/25 01:01:38;;;;;;;6.20;5.70;;;7.10;72.50;;;;;;5101553;28;20195;-88
2021/10/25 01:04:04;;;;;;;6.10;5.50;;;7.00;72.60;;;;;;5087012;28;20656;-88
2021/10/25 01:06:30;;;;;;;6.87;5.97;;;7.00;72.70;;;;;;5106000;28;20256;-89
2021/10/25 01:08:59;;;;;;;6.67;6.07;;;7.00;72.30;;;;;;5088665;28;20194;-89
2021/10/25 01:11:26;;;;;;;7.83;6.77;;;7.00;72.40;;;;;;5088614;28;20267;-88
2021/10/25 01:13:53;;;;;;;6.50;5.90;;;6.90;72.70;;;;;;5104838;28;20198;-88
2021/10/25 01:16:19;;;;;;;7.83;5.93;;;7.00;72.70;;;;;;5106236;28;20555;-89
2021/10/25 01:18:45;;;;;;;6.27;5.67;;;6.90;72.40;;;;;;5106013;28;20179;-88
2021/10/25 01:21:12;;;;;;;7.17;6.10;;;6.90;72.30;;;;;;5087709;28;20278;-88
2021/10/25 01:23:38;;;;;;;5.67;5.17;;;6.90;72.50;;;;;;5104195;28;20190;-89
2021/10/25 01:26:04;;;;;;;6.73;6.10;;;6.90;72.60;;;;;;5088199;28;20240;-88
2021/10/25 01:28:30;;;;;;;7.00;6.40;;;6.90;72.70;;;;;;5084050;28;20188;-88
2021/10/25 01:30:56;;;;;;;6.13;5.53;;;6.90;72.70;;;;;;5106146;28;20221;-88
2021/10/25 01:33:22;;;;;;;6.03;5.53;;;6.90;72.60;;;;;;5113584;28;20183;-89
2021/10/25 01:35:49;;;;;;;6.47;5.87;;;6.90;72.50;;;;;;5087509;28;20246;-89
2021/10/25 01:38:15;;;;;;;6.57;5.97;;;6.90;72.60;;;;;;5102409;28;20198;-88
2021/10/25 01:40:41;;;;;;;6.67;5.93;;;6.80;72.40;;;;;;5116404;28;20218;-88
2021/10/25 01:43:07;;;;;;;6.43;5.93;;;6.80;72.30;;;;;;5079258;28;20309;-89
2021/10/25 01:45:34;;;;;;;6.90;5.80;;;6.80;72.40;;;;;;5105566;28;20201;-89
2021/10/25 01:48:00;;;;;;;6.70;5.93;;;6.80;72.60;;;;;;5104392;28;20221;-88
2021/10/25 01:50:26;;;;;;;6.33;5.73;;;6.80;72.70;;;;;;5087826;28;20207;-88
2021/10/25 01:52:52;;;;;;;6.87;6.17;;;6.80;72.90;;;;;;5082931;28;20195;-88
2021/10/25 01:55:19;;;;;;;6.23;5.73;;;6.80;72.70;;;;;;5064909;28;20190;-88
2021/10/25 01:57:45;;;;;;;7.93;5.70;;;6.70;72.80;;;;;;5105651;28;20252;-89
2021/10/25 02:00:11;;;;;;;6.43;5.93;;;6.70;72.80;;;;;;5090542;28;20207;-88
2021/10/25 02:02:37;;;;;;;7.60;6.13;;;6.70;72.60;;;;;;5066276;28;20218;-88
2021/10/25 02:05:03;;;;;;;6.67;6.07;;;6.70;73.00;;;;;;5104585;28;20199;-88
2021/10/25 02:07:29;;;;;;;6.40;5.90;;;6.70;73.10;;;;;;5083504;28;20250;-88
2021/10/25 02:09:56;;;;;;;7.50;6.27;;;6.70;72.90;;;;;;5086386;28;20202;-88
2021/10/25 02:12:22;;;;;;;6.67;5.90;;;6.70;72.30;;;;;;5084958;28;20195;-88
2021/10/25 02:14:48;;;;;;;6.53;5.93;;;6.70;72.90;;;;;;5104660;28;20210;-89
2021/10/25 02:17:15;;;;;;;6.23;5.73;;;6.60;73.10;;;;;;5084622;28;20225;-89
2021/10/25 02:19:41;;;;;;;6.33;5.83;;;6.70;72.60;;;;;;5105087;28;20203;-89
2021/10/25 02:22:07;;;;;;;6.77;6.07;;;6.70;72.80;;;;;;5105011;28;20694;-89
2021/10/25 02:24:33;;;;;;;6.60;6.00;;;6.60;72.30;;;;;;5104673;28;20205;-89
2021/10/25 02:27:00;;;;;;;6.30;5.70;;;6.60;72.10;;;;;;5088742;28;20233;-88
2021/10/25 02:29:26;;;;;;;6.13;5.63;;;6.60;72.70;;;;;;5087075;28;20273;-88
2021/10/25 02:31:51;;;;;;;5.40;4.90;;;6.60;72.40;;;;;;5079819;28;20195;-89
2021/10/25 02:34:17;;;;;;;5.47;4.97;;;6.60;72.40;;;;;;5084671;28;20175;-88
2021/10/25 02:36:44;;;;;;;5.50;5.00;;;6.70;72.60;;;;;;5086472;28;20301;-88
2021/10/25 02:39:10;;;;;;;6.07;5.50;;;6.70;72.30;;;;;;5086300;28;20236;-88
2021/10/25 02:41:37;;;;;;;5.23;4.73;;;6.60;72.70;;;;;;5086032;28;20527;-89
2021/10/25 02:44:03;;;;;;;5.60;5.10;;;6.60;72.70;;;;;;5103576;28;20665;-89
2021/10/25 02:46:29;;;;;;;5.73;5.20;;;6.60;72.50;;;;;;5086391;28;20233;-88
2021/10/25 02:48:55;;;;;;;5.00;4.60;;;6.60;72.90;;;;;;5053819;28;20183;-88
2021/10/25 02:51:21;;;;;;;5.70;5.17;;;6.60;72.60;;;;;;5086449;28;20221;-88
2021/10/25 02:53:47;;;;;;;5.87;5.20;;;6.60;72.80;;;;;;5086666;28;20194;-88
2021/10/25 02:56:13;;;;;;;4.77;4.37;;;6.60;73.00;;;;;;5104868;28;20507;-88
2021/10/25 02:58:39;;;;;;;5.10;4.70;;;6.60;73.00;;;;;;5086347;28;20182;-88
2021/10/25 03:01:05;;;;;;;5.00;4.60;;;6.60;72.60;;;;;;5104030;28;20580;-88
2021/10/25 03:03:31;;;;;;;5.23;4.83;;;6.60;72.70;;;;;;5086233;28;20194;-88
2021/10/25 03:05:57;;;;;;;8.07;4.90;;;6.60;72.90;;;;;;5076651;28;20175;-88
2021/10/25 03:08:23;;;;;;;4.90;4.50;;;6.50;72.60;;;;;;5095683;28;20232;-88
2021/10/25 03:10:49;;;;;;;6.30;5.00;;;6.40;73.00;;;;;;5069583;28;20221;-88
2021/10/25 03:13:18;;;;;;;5.40;4.90;;;6.40;72.90;;;;;;5103246;28;20217;-88
2021/10/25 03:15:43;;;;;;;6.30;5.00;;;6.30;73.60;;;;;;5103257;28;20194;-89
2021/10/25 03:18:11;;;;;;;5.43;4.93;;;6.30;74.00;;;;;;5071431;28;20218;-88
2021/10/25 03:20:37;;;;;;;5.20;4.80;;;6.30;73.60;;;;;;5086970;28;20353;-88
2021/10/25 03:23:03;;;;;;;5.30;4.87;;;6.30;73.60;;;;;;5102094;28;20190;-89
2021/10/25 03:25:29;;;;;;;4.90;4.47;;;6.30;73.90;;;;;;5073563;28;20307;-88
2021/10/25 03:27:55;;;;;;;5.00;4.50;;;6.30;73.20;;;;;;5106272;28;20198;-88
2021/10/25 03:30:21;;;;;;;4.73;4.33;;;6.20;74.10;;;;;;5089810;28;20214;-88
2021/10/25 03:32:46;;;;;;;5.37;4.40;;;6.10;75.20;;;;;;5088249;28;20206;-88
2021/10/25 03:35:12;;;;;;;4.50;4.10;;;6.10;76.10;;;;;;5108224;28;20183;-88
2021/10/25 03:37:39;;;;;;;4.30;3.90;;;6.10;75.90;;;;;;5107474;28;20677;-88
2021/10/25 03:40:06;;;;;;;5.27;4.77;;;6.10;75.00;;;;;;5072594;28;20236;-88
2021/10/25 03:42:39;;;;;;;4.73;4.27;;;6.10;75.00;;;;;;5088206;28;20191;-88
2021/10/25 03:47:58;;;;;;;4.73;4.33;;;6.10;74.40;;;;;;5091861;28;20195;-88
2021/10/25 03:50:27;;;;;;;5.27;4.47;;;6.10;74.40;;;;;;5107905;28;20202;-88
2021/10/25 04:01:07;;;;;;;4.50;4.10;;;5.60;76.20;;;;;;5107429;28;20264;-87
2021/10/25 04:27:53;;;;;;;4.67;3.87;;;5.80;75.30;;;;;;5092473;28;20204;-88
2021/10/25 04:30:19;;;;;;;4.30;3.90;;;5.90;74.90;;;;;;5088487;28;20279;-88
2021/10/25 04:32:46;;;;;;;4.80;4.40;;;5.90;74.90;;;;;;5087673;28;20251;-88
2021/10/25 04:35:13;;;;;;;4.80;4.40;;;5.80;74.80;;;;;;5088661;28;20242;-88
2021/10/25 04:37:39;;;;;;;4.67;4.27;;;5.80;74.60;;;;;;5106843;28;20564;-88
2021/10/25 04:40:06;;;;;;;6.77;5.10;;;5.80;74.20;;;;;;5084298;28;20199;-88
2021/10/25 04:42:35;;;;;;;7.57;6.80;;;5.60;73.70;;;;;;5088787;28;20182;-88
2021/10/25 04:45:00;;;;;;;6.57;5.97;;;5.50;75.80;;;;;;5106125;28;20203;-88
2021/10/25 04:47:27;;;;;;;6.33;5.83;;;5.50;77.40;;;;;;5085587;28;20589;-88
2021/10/25 04:49:52;;;;;;;6.23;5.33;;;5.60;77.80;;;;;;5105756;28;20858;-88
2021/10/25 04:52:18;;;;;;;6.97;6.27;;;5.60;77.20;;;;;;5088612;28;20201;-88
2021/10/25 04:54:44;;;;;;;6.87;5.57;;;5.60;76.10;;;;;;5104185;28;20187;-88
2021/10/25 04:57:10;;;;;;;6.03;5.53;;;5.60;75.80;;;;;;5106994;28;20270;-88
2021/10/25 04:59:36;;;;;;;7.53;4.93;;;5.60;76.40;;;;;;5102905;28;20215;-88
2021/10/25 05:02:03;;;;;;;5.60;5.10;;;5.60;76.30;;;;;;5107319;28;20186;-88
2021/10/25 05:04:30;;;;;;;6.30;5.80;;;5.70;76.20;;;;;;5087922;28;20195;-88
2021/10/25 05:06:56;;;;;;;6.43;5.70;;;5.70;76.20;;;;;;5071775;28;20190;-89
2021/10/25 05:09:21;;;;;;;7.37;6.43;;;5.80;76.70;;;;;;5088715;28;20255;-89
2021/10/25 05:11:47;;;;;;;6.67;5.97;;;5.70;77.10;;;;;;5063312;28;20195;-88
2021/10/25 05:14:13;;;;;;;7.50;5.87;;;5.60;78.80;;;;;;5097316;28;20221;-88
2021/10/25 05:16:39;;;;;;;7.23;6.23;;;5.60;79.60;;;;;;5087685;28;20246;-88
2021/10/25 05:19:05;;;;;;;6.63;6.03;;;5.70;80.50;;;;;;5103680;28;20205;-88
2021/10/25 05:21:31;;;;;;;6.40;5.80;;;5.70;79.80;;;;;;5099888;28;20207;-88
2021/10/25 05:23:57;;;;;;;8.20;7.07;;;5.60;76.40;;;;;;5070000;28;20339;-88
2021/10/25 05:26:23;;;;;;;9.17;7.53;;;5.40;78.10;;;;;;5096958;28;20190;-88
2021/10/25 05:28:48;;;;;;;10.73;8.90;;;5.40;79.70;;;;;;5098060;28;20198;-88
2021/10/25 05:31:14;;;;;;;13.40;10.63;;;5.50;79.90;;;;;;5068249;28;20229;-88
2021/10/25 05:33:41;;;;;;;10.10;7.90;;;5.60;79.10;;;;;;5081727;28;20179;-87
2021/10/25 05:36:08;;;;;;;7.63;6.93;;;5.60;79.10;;;;;;5094617;28;20233;-89
2021/10/25 05:38:35;;;;;;;7.80;6.23;;;5.60;77.80;;;;;;5067340;28;21327;-88
2021/10/25 05:41:01;;;;;;;6.50;5.83;;;5.60;77.10;;;;;;5081400;28;20199;-89
2021/10/25 05:43:27;;;;;;;8.07;6.47;;;5.60;77.20;;;;;;5081486;28;20194;-88
2021/10/25 05:45:53;;;;;;;8.37;6.37;;;5.60;77.90;;;;;;5078833;28;20191;-88
2021/10/25 05:48:19;;;;;;;7.30;6.20;;;5.60;77.70;;;;;;5100622;28;20549;-89
2021/10/25 05:50:46;;;;;;;10.63;7.43;;;5.40;76.90;;;;;;5089848;28;20223;-88
2021/10/25 05:53:12;;;;;;;10.53;6.83;;;5.40;78.80;;;;;;5094617;28;20638;-87
2021/10/25 05:55:39;;;;;;;11.40;7.47;;;5.50;78.70;;;;;;5099106;28;20233;-88
2021/10/25 05:58:09;;;;;;;7.87;7.07;;;5.50;78.40;;;;;;5095499;28;20213;-88
2021/10/25 06:00:38;;;;;;;9.77;7.47;;;5.70;78.10;;;;;;5063060;28;20203;-88
2021/10/25 06:03:06;;;;;;;9.33;8.03;;;5.60;78.10;;;;;;5099401;28;20209;-89
2021/10/25 06:05:32;;;;;;;9.07;7.07;;;5.60;78.10;;;;;;5060838;28;20183;-88
2021/10/25 06:07:58;;;;;;;8.20;5.60;;;5.60;77.70;;;;;;5099245;28;20198;-88
2021/10/25 06:10:32;;;;;;;6.40;5.80;;;5.40;75.40;;;;;;5098072;28;20198;-88
2021/10/25 06:13:02;;;;;;;7.73;7.00;;;5.10;77.10;;;;;;5096093;28;20187;-88
2021/10/25 06:15:36;;;;;;;6.40;5.90;;;5.10;79.10;;;;;;5065123;28;20658;-88
2021/10/25 06:18:01;;;;;;;9.27;7.27;;;5.10;79.20;;;;;;5048659;28;20238;-88
2021/10/25 06:20:29;;;;;;;8.97;7.73;;;5.20;78.70;;;;;;5099603;28;20213;-88
2021/10/25 06:22:56;;;;;;;7.00;6.30;;;5.30;78.90;;;;;;5081247;28;20410;-88
2021/10/25 06:25:23;;;;;;;6.70;5.80;;;5.30;78.90;;;;;;5045688;28;20207;-88
2021/10/25 06:27:52;;;;;;;7.70;5.80;;;5.40;78.10;;;;;;5096691;28;20182;-88
2021/10/25 06:30:19;;;;;;;8.50;6.30;;;5.30;78.30;;;;;;5059376;28;20211;-88
2021/10/25 06:32:45;;;;;;;9.90;6.33;;;5.40;77.90;;;;;;5094592;28;20198;-88
2021/10/25 06:35:14;;;;;;;7.27;6.17;;;5.50;77.00;;;;;;5080108;28;20553;-88
2021/10/25 06:40:35;;;;;;;7.23;5.80;;;5.60;77.70;;;;;;5077309;28;20207;-88
2021/10/25 06:43:01;;;;;;;7.17;5.77;;;5.60;77.30;;;;;;5079840;28;20553;-89
2021/10/25 06:45:27;;;;;;;8.13;6.00;;;5.60;77.20;;;;;;5061256;28;20187;-88
2021/10/25 06:47:54;;;;;;;7.27;6.03;;;5.50;77.90;;;;;;5102328;28;20235;-89
2021/10/25 06:50:25;;;;;;;10.97;6.40;;;5.70;79.10;;;;;;5094771;28;20210;-88
2021/10/25 06:53:01;;;;;;;8.70;6.37;;;5.60;77.50;;;;;;5079952;28;20250;-88
2021/10/25 06:55:28;;;;;;;6.80;5.30;;;5.50;78.20;;;;;;5065287;28;20171;-89
2021/10/25 06:57:54;;;;;;;7.43;5.60;;;5.50;78.40;;;;;;5101269;28;20217;-88
2021/10/25 07:00:19;;;;;;;7.33;6.17;;;5.50;78.80;;;;;;5095477;28;20230;-88
2021/10/25 07:02:45;;;;;;;7.87;6.77;;;5.40;79.20;;;;;;5066896;28;20689;-88
2021/10/25 07:05:11;;;;;;;9.47;6.00;;;5.40;79.70;;;;;;5100962;28;20199;-89
2021/10/25 07:07:37;;;;;;;6.63;5.93;;;5.40;80.30;;;;;;5064600;28;20187;-88
2021/10/25 07:10:05;;;;;;;6.17;5.40;;;5.40;80.90;;;;;;5103119;28;20260;-89
2021/10/25 07:12:31;;;;;;;9.37;8.47;;;5.40;80.70;;;;;;5083883;28;20187;-88
2021/10/25 07:14:58;;;;;;;8.50;6.70;;;5.50;80.70;;;;;;5102916;28;20175;-88
2021/10/25 07:23:19;;;;;;;7.83;5.73;;;5.90;80.80;;;;;;5085362;28;20197;-89
2021/10/25 08:04:15;;;;;;;10.17;6.20;;;6.80;81.90;;;;;;5098486;28;20187;-87
2021/10/25 08:11:58;;;;;;;8.83;6.87;;;7.10;83.10;;;;;;5090473;28;20198;-87
2021/10/25 08:14:31;;;;;;;8.13;7.33;;;7.20;82.20;;;;;;5090116;28;20232;-87
2021/10/25 08:16:57;;;;;;;8.03;7.23;;;7.30;81.80;;;;;;5076411;28;20289;-88
2021/10/25 08:19:27;;;;;;;10.47;6.93;;;7.10;84.30;;;;;;5093742;28;20219;-87
2021/10/25 08:22:15;;;;;;;7.40;6.60;;;7.10;85.20;;;;;;5091849;28;20186;-88
2021/10/25 08:24:47;;;;;;;7.23;6.53;;;7.40;84.20;;;;;;5076645;28;20214;-88
2021/10/25 08:27:15;;;;;;;7.93;7.10;;;7.50;84.30;;;;;;5076412;28;20195;-87
2021/10/25 08:29:41;;;;;;;7.17;6.37;;;7.50;85.60;;;;;;5094025;28;20210;-87
2021/10/25 08:32:30;;;;;;;6.00;5.40;;;7.60;86.50;;;;;;5081696;28;20187;-88
2021/10/25 08:40:27;;;;;;;7.93;7.23;;;7.60;88.10;;;;;;5096576;28;20284;-87
2021/10/25 08:42:53;;;;;;;9.77;8.83;;;7.80;86.80;;;;;;5078527;28;20202;-88
2021/10/25 08:45:27;;;;;;;9.87;8.87;;;7.80;88.30;;;;;;5097989;28;20175;-88
2021/10/25 08:47:54;;;;;;;9.43;8.60;;;7.80;88.20;;;;;;5090166;28;20538;-87
2021/10/25 08:50:23;;;;;;;8.70;7.87;;;7.80;88.80;;;;;;5077106;28;20313;-87
2021/10/25 08:52:50;;;;;;;9.53;8.63;;;8.10;88.10;;;;;;5077496;28;20267;-88
2021/10/25 08:55:18;;;;;;;9.20;8.40;;;8.30;88.70;;;;;;5093088;28;20187;-88
2021/10/25 08:57:48;;;;;;;8.83;8.00;;;8.30;88.10;;;;;;5095348;28;20285;-87
2021/10/25 09:00:18;;;;;;;8.03;7.33;;;8.20;87.90;;;;;;5069753;28;20210;-87
2021/10/25 09:02:55;;;;;;;9.03;8.13;;;8.40;86.80;;;;;;5111985;28;20159;-88
2021/10/25 09:05:23;;;;;;;7.63;6.93;;;8.50;87.20;;;;;;5091483;28;20186;-88
2021/10/25 09:07:54;;;;;;;8.97;8.17;;;8.60;86.30;;;;;;5080519;28;20191;-88
2021/10/25 09:10:30;;;;;;;8.47;7.67;;;8.40;88.10;;;;;;5100607;28;20210;-88
2021/10/25 09:12:59;;;;;;;8.73;7.93;;;8.40;87.70;;;;;;5085608;28;20233;-88
2021/10/25 09:15:31;;;;;;;9.13;8.03;;;8.60;87.90;;;;;;5093281;28;20199;-88
2021/10/25 09:18:12;;;;;;;9.03;8.13;;;8.80;86.80;;;;;;5093913;28;20203;-88
2021/10/25 09:20:51;;;;;;;8.40;7.70;;;9.00;85.30;;;;;;5071083;28;20246;-88
2021/10/25 09:23:39;;;;;;;9.70;7.90;;;8.80;85.80;;;;;;5099581;28;20269;-88
2021/10/25 09:26:11;;;;;;;8.13;7.33;;;8.80;85.60;;;;;;5104478;28;20242;-87
2021/10/25 09:28:41;;;;;;;10.60;8.73;;;9.20;83.40;;;;;;5102026;28;20179;-88
2021/10/25 09:31:12;;;;;;;9.77;8.90;;;9.40;84.00;;;;;;5097390;28;20229;-88
2021/10/25 09:33:40;;;;;;;11.70;10.03;;;9.50;84.10;;;;;;5096609;28;20206;-88
2021/10/25 09:36:10;;;;;;;11.90;10.20;;;9.50;83.60;;;;;;5099340;28;20198;-88
2021/10/25 09:50:00;;;;;;;11.53;10.43;;;10.90;78.10;;;;;;5097123;28;20224;-88
2021/10/25 09:52:31;;;;;;;10.33;9.43;;;11.00;77.60;;;;;;5082787;28;20273;-88
2021/10/25 09:55:27;;;;;;;9.97;8.97;;;11.10;76.00;;;;;;5100517;28;20184;-88
2021/10/25 09:58:21;;;;;;;18.47;10.53;;;11.10;76.70;;;;;;5082903;28;20220;-88
2021/10/25 10:00:47;;;;;;;11.23;10.03;;;11.20;74.40;;;;;;5083756;28;20536;-89
2021/10/25 10:03:13;;;;;;;16.30;14.90;;;11.50;74.10;;;;;;5070133;28;20218;-88
2021/10/25 10:05:41;;;;;;;9.10;8.33;;;11.80;72.20;;;;;;5082327;28;20180;-88
2021/10/25 10:08:09;;;;;;;10.43;9.43;;;12.20;71.20;;;;;;5053426;28;20283;-88
2021/10/25 10:10:36;;;;;;;10.10;9.10;;;12.30;70.60;;;;;;5082821;28;20208;-88
2021/10/25 10:13:04;;;;;;;11.07;9.93;;;12.30;71.20;;;;;;5082559;28;20193;-88
2021/10/25 10:15:31;;;;;;;9.43;8.60;;;12.40;70.30;;;;;;5083512;28;20340;-88
2021/10/25 10:18:09;;;;;;;9.57;8.67;;;12.60;69.60;;;;;;5063318;28;20246;-88
2021/10/25 10:20:39;;;;;;;9.43;8.00;;;12.90;68.10;;;;;;5079021;28;20662;-88
2021/10/25 10:23:09;;;;;;;8.60;7.70;;;13.00;67.10;;;;;;5063431;28;20266;-88
2021/10/25 10:25:38;;;;;;;8.90;8.00;;;13.20;67.10;;;;;;5078927;28;20662;-87
2021/10/25 10:28:12;;;;;;;11.13;7.13;;;13.20;67.60;;;;;;5078069;28;20662;-87
2021/10/25 10:30:50;;;;;;;9.63;7.30;;;13.50;65.10;;;;;;5097951;28;20208;-88
2021/10/25 10:33:17;;;;;;;7.97;7.17;;;13.50;64.30;;;;;;5078993;28;20193;-87
2021/10/25 10:35:45;;;;;;;7.73;7.13;;;13.70;65.10;;;;;;5078820;28;20187;-88
2021/10/25 10:38:11;;;;;;;8.20;7.40;;;13.90;64.40;;;;;;5081536;28;20208;-87
2021/10/25 10:40:41;;;;;;;8.17;7.40;;;13.90;62.90;;;;;;5080858;28;20209;-88
2021/10/25 10:43:21;;;;;;;9.57;8.50;;;14.00;63.10;;;;;;5095035;28;20195;-88
2021/10/25 10:45:58;;;;;;;9.37;8.60;;;13.50;66.00;;;;;;5092881;28;20638;-89
2021/10/25 10:48:29;;;;;;;9.13;7.50;;;13.30;66.90;;;;;;5088709;28;20226;-89
2021/10/25 10:51:06;;;;;;;7.57;6.87;;;13.40;66.90;;;;;;5062009;28;20245;-89
2021/10/25 10:53:44;;;;;;;7.80;7.00;;;13.30;67.50;;;;;;5094726;28;20180;-89
2021/10/25 10:56:21;;;;;;;8.00;7.30;;;13.30;68.80;;;;;;5077641;28;20281;-89
2021/10/25 10:58:51;;;;;;;8.80;7.70;;;13.30;67.80;;;;;;5068960;28;20203;-89
2021/10/25 11:01:18;;;;;;;7.80;7.10;;;13.60;67.00;;;;;;5062934;28;20204;-89
2021/10/25 11:03:43;;;;;;;7.97;7.20;;;13.70;67.80;;;;;;5098077;28;20175;-89
2021/10/25 11:06:19;;;;;;;8.20;7.43;;;13.90;67.20;;;;;;5074202;28;20315;-89
2021/10/25 11:08:47;;;;;;;8.40;7.57;;;13.90;65.60;;;;;;5099240;28;20191;-89
2021/10/25 11:11:19;;;;;;;8.47;7.77;;;14.00;65.80;;;;;;5079357;28;20226;-89
2021/10/25 11:14:00;;;;;;;8.60;7.87;;;14.10;65.30;;;;;;5081279;28;20209;-89
2021/10/25 11:19:01;;;;;;;8.63;7.87;;;13.90;64.70;;;;;;5064866;28;20196;-89
2021/10/25 11:21:38;;;;;;;8.00;7.40;;;14.60;62.90;;;;;;5098068;28;20308;-89
2021/10/25 11:24:11;;;;;;;7.50;6.80;;;14.90;60.90;;;;;;5101883;28;20205;-89
2021/10/25 11:26:47;;;;;;;7.73;7.03;;;15.00;61.00;;;;;;5081075;28;20531;-87
2021/10/25 11:29:14;;;;;;;7.27;6.63;;;15.10;60.30;;;;;;5079093;28;20206;-89
2021/10/25 11:31:51;;;;;;;7.87;7.17;;;15.40;61.10;;;;;;5099400;28;20519;-89
2021/10/25 11:34:32;;;;;;;8.27;7.57;;;15.80;58.90;;;;;;5072362;28;20194;-89
2021/10/25 11:37:11;;;;;;;7.60;6.90;;;15.80;58.50;;;;;;5089679;28;20218;-90
2021/10/25 11:39:54;;;;;;;8.17;7.37;;;15.50;59.20;;;;;;5091837;28;20231;-89
2021/10/25 11:42:24;;;;;;;7.13;6.53;;;15.20;60.00;;;;;;5081447;28;20190;-89
2021/10/25 11:44:53;;;;;;;8.83;7.67;;;15.70;58.90;;;;;;5088995;28;20267;-90
2021/10/25 11:47:34;;;;;;;7.43;6.73;;;15.80;57.70;;;;;;5096149;28;20220;-87
2021/10/25 11:50:09;;;;;;;7.67;6.97;;;16.10;56.60;;;;;;5086548;28;20205;-90
2021/10/25 11:52:38;;;;;;;8.17;6.87;;;16.10;57.50;;;;;;5094869;28;20201;-89
2021/10/25 11:55:05;;;;;;;7.83;7.03;;;15.80;56.80;;;;;;5100937;28;20188;-91
2021/10/25 11:57:32;;;;;;;7.90;7.30;;;16.50;54.90;;;;;;5093656;28;20213;-91
2021/10/25 12:00:11;;;;;;;7.17;6.27;;;17.00;54.10;;;;;;5105337;28;20223;-90
2021/10/25 12:02:37;;;;;;;6.97;6.28;;;17.50;52.90;;;;;;5095413;28;20388;-89
2021/10/25 12:05:04;;;;;;;6.70;6.20;;;17.90;52.40;;;;;;5092136;28;20514;-90
2021/10/25 12:07:31;;;;;;;7.68;6.90;;;18.00;52.50;;;;;;5094783;28;20216;-90
2021/10/25 12:10:06;;;;;;;6.75;6.25;;;17.90;50.90;;;;;;5062433;28;20214;-90
2021/10/25 12:12:32;;;;;;;6.63;6.03;;;18.00;51.50;;;;;;5098299;28;20191;-90
2021/10/25 12:15:01;;;;;;;7.68;6.88;;;18.20;50.80;;;;;;5082016;28;20184;-90
2021/10/25 12:17:36;;;;;;;7.90;7.20;;;18.70;49.90;;;;;;5097338;28;20209;-90
2021/10/25 12:20:08;;;;;;;7.07;6.38;;;19.10;47.40;;;;;;5067714;28;20357;-89
2021/10/25 12:22:34;;;;;;;6.90;6.20;;;19.20;47.80;;;;;;5081539;28;20188;-89
2021/10/25 12:25:01;;;;;;;5.82;5.32;;;19.80;47.60;;;;;;5081598;28;20249;-89
2021/10/25 12:27:37;;;;;;;7.57;5.50;;;20.10;45.10;;;;;;5076328;28;20186;-89
2021/10/25 12:30:16;;;;;;;5.22;4.82;;;20.10;42.50;;;;;;5083316;28;20241;-90
2021/10/25 12:33:01;;;;;;;6.20;5.60;;;20.20;43.60;;;;;;5082596;28;20214;-90
2021/10/25 12:35:44;;;;;;;5.63;5.22;;;20.30;41.80;;;;;;5083733;28;20183;-89
2021/10/25 12:38:14;;;;;;;5.43;4.80;;;20.50;42.40;;;;;;5096117;28;20556;-89
2021/10/25 12:40:49;;;;;;;4.72;4.32;;;19.70;44.10;;;;;;5079733;28;20211;-90
2021/10/25 12:43:16;;;;;;;5.28;4.85;;;19.70;44.90;;;;;;5095909;28;20666;-90
2021/10/25 12:45:55;;;;;;;5.30;4.80;;;19.30;43.60;;;;;;5074986;28;20181;-90
2021/10/25 12:48:21;;;;;;;4.90;4.47;;;19.10;44.10;;;;;;5073547;28;20196;-90
2021/10/25 12:50:50;;;;;;;4.15;3.75;;;19.60;43.40;;;;;;5088325;28;20259;-90
2021/10/25 12:53:19;;;;;;;6.53;5.18;;;19.70;43.70;;;;;;5091545;28;20202;-90
2021/10/25 12:55:55;;;;;;;5.72;4.70;;;19.20;43.60;;;;;;5094171;28;20210;-90
2021/10/25 12:58:24;;;;;;;4.45;4.05;;;19.60;44.50;;;;;;5075417;28;20718;-90
2021/10/25 13:00:50;;;;;;;4.97;4.53;;;19.80;43.30;;;;;;5093376;28;20766;-90
2021/10/25 13:03:15;;;;;;;5.00;3.92;;;19.50;43.00;;;;;;5094576;28;20175;-90
2021/10/25 13:05:45;;;;;;;6.93;4.65;;;19.50;45.20;;;;;;5073573;28;20337;-90
2021/10/25 13:08:11;;;;;;;5.25;4.72;;;20.00;43.00;;;;;;5096843;28;20198;-90
2021/10/25 13:10:43;;;;;;;5.55;5.03;;;20.90;41.70;;;;;;5091254;28;20215;-90
2021/10/25 13:13:12;;;;;;;5.85;5.35;;;21.40;40.40;;;;;;5070159;28;20191;-90
2021/10/25 13:15:41;;;;;;;5.40;4.90;;;21.30;40.40;;;;;;5095304;28;20194;-90
2021/10/25 13:18:09;;;;;;;5.30;4.90;;;21.40;40.40;;;;;;5074368;28;20218;-90
2021/10/25 13:20:37;;;;;;;6.13;5.53;;;21.30;40.20;;;;;;5070935;28;20347;-89
2021/10/25 13:23:04;;;;;;;6.55;5.95;;;21.70;40.10;;;;;;5092806;28;20179;-88
2021/10/25 13:25:32;;;;;;;11.07;9.98;;;21.80;40.00;;;;;;5092787;28;20194;-89
2021/10/25 13:27:59;;;;;;;6.80;5.50;;;21.90;39.70;;;;;;5057740;28;20194;-88
2021/10/25 13:30:26;;;;;;;5.53;5.13;;;22.00;39.30;;;;;;5076285;28;20267;-89
2021/10/25 13:32:54;;;;;;;5.72;5.22;;;22.10;38.50;;;;;;5076937;28;20194;-89
2021/10/25 13:35:21;;;;;;;6.68;5.05;;;22.40;37.90;;;;;;5077160;28;20190;-89
2021/10/25 13:37:52;;;;;;;5.38;4.88;;;22.40;37.70;;;;;;5095322;28;20195;-89
2021/10/25 13:40:19;;;;;;;5.65;5.00;;;22.50;38.90;;;;;;5081827;28;20712;-90
2021/10/25 13:42:44;;;;;;;5.43;4.85;;;21.80;40.40;;;;;;5095600;28;20202;-90
2021/10/25 13:45:10;;;;;;;6.00;5.50;;;22.10;38.70;;;;;;5063562;28;20653;-90
2021/10/25 13:47:36;;;;;;;5.32;4.82;;;22.20;39.70;;;;;;5094747;28;20657;-89
2021/10/25 13:50:04;;;;;;;5.55;5.03;;;22.30;39.20;;;;;;5095395;28;20313;-90
2021/10/25 13:52:29;;;;;;;5.18;4.78;;;22.30;38.10;;;;;;5072405;28;20199;-90
2021/10/25 13:54:55;;;;;;;5.78;5.07;;;22.50;38.30;;;;;;5090371;28;20195;-90
2021/10/25 13:57:22;;;;;;;5.55;4.90;;;22.60;38.70;;;;;;5094881;28;20215;-89
2021/10/25 13:59:52;;;;;;;5.88;5.20;;;22.70;38.20;;;;;;5073694;28;20200;-90
2021/10/25 14:02:24;;;;;;;5.72;5.30;;;22.90;37.20;;;;;;5092129;28;20189;-90
2021/10/25 14:04:53;;;;;;;5.32;4.88;;;22.60;38.70;;;;;;5076161;28;20745;-90
2021/10/25 14:07:21;;;;;;;5.88;5.28;;;21.90;40.10;;;;;;5077242;28;20187;-90
2021/10/25 14:09:54;;;;;;;5.25;4.85;;;22.00;40.20;;;;;;5094899;28;20461;-89
2021/10/25 14:12:24;;;;;;;6.28;5.43;;;21.80;41.50;;;;;;5078927;28;20236;-90
2021/10/25 14:14:51;;;;;;;7.65;5.63;;;22.00;39.40;;;;;;5074497;28;20190;-90
2021/10/25 14:17:18;;;;;;;5.97;5.38;;;21.40;41.80;;;;;;5054761;28;20598;-90
2021/10/25 14:19:44;;;;;;;5.32;4.82;;;21.10;43.00;;;;;;5059702;28;20678;-90
2021/10/25 14:22:10;;;;;;;5.35;4.85;;;21.60;41.10;;;;;;5096983;28;20175;-90
2021/10/25 14:24:39;;;;;;;5.20;4.75;;;21.60;41.10;;;;;;5099729;28;20562;-91
2021/10/25 14:27:05;;;;;;;5.03;4.63;;;21.70;41.00;;;;;;5065684;28;20187;-90
2021/10/25 14:29:30;;;;;;;5.65;5.15;;;21.70;41.80;;;;;;5081868;28;20209;-90
2021/10/25 14:31:56;;;;;;;5.43;5.03;;;21.60;42.50;;;;;;5103231;28;20179;-90
2021/10/25 14:34:22;;;;;;;5.05;4.65;;;21.80;41.50;;;;;;5116273;28;20250;-90
2021/10/25 14:36:53;;;;;;;6.00;5.50;;;22.20;39.90;;;;;;5097222;28;20644;-90
2021/10/25 14:39:34;;;;;;;5.18;4.68;;;22.10;39.70;;;;;;5101750;28;20587;-90
2021/10/25 14:42:06;;;;;;;5.28;4.88;;;21.80;41.40;;;;;;5113755;28;20163;-90
2021/10/25 14:53:26;;;;;;;5.80;5.28;;;21.90;41.30;;;;;;5077826;28;20199;-90
2021/10/25 14:58:22;;;;;;;5.32;4.72;;;21.80;42.10;;;;;;5096515;28;20213;-90